Terminal Aerodrome Forecast
Issued by NWS Cleveland, OH

Home | Current Version | Previous Version | Text Only | Print | Product List | Glossary On
Versions: 1 2 3 4 5 6 7 8 9 10 11 12 13 14 15 16
000
FTUS41 KCLE 300401 AAA
TAFYNG
TAF AMD
KYNG 300401Z 3004/3024 08010KT 4SM -RA BKN018
      TEMPO 3004/3006 08012G20KT 2SM RA BKN035
     FM300700 09014KT 5SM BR OVC008
     FM301400 09012G22KT P6SM BKN012 OVC025
     FM302000 10010KT P6SM -SHRA BKN030=

USA.gov is the U.S. government's official web portal to all federal, state and local government web resources and services.